sensor_id;sensor_type;location;lat;lon;timestamp;P1;durP1;ratioP1;P2;durP2;ratioP2
57832;SDS011;43667;53.036;6.740;2023-01-23T00:01:20;18.02;;;10.60;;
57832;SDS011;43667;53.036;6.740;2023-01-23T00:03:52;17.60;;;10.95;;
57832;SDS011;43667;53.036;6.740;2023-01-23T00:06:18;17.38;;;10.27;;
57832;SDS011;43667;53.036;6.740;2023-01-23T00:08:44;17.67;;;10.15;;
57832;SDS011;43667;53.036;6.740;2023-01-23T00:11:12;20.27;;;9.43;;
57832;SDS011;43667;53.036;6.740;2023-01-23T00:13:43;17.25;;;10.43;;
57832;SDS011;43667;53.036;6.740;2023-01-23T00:16:13;20.27;;;10.00;;
57832;SDS011;43667;53.036;6.740;2023-01-23T00:18:40;16.00;;;9.40;;
57832;SDS011;43667;53.036;6.740;2023-01-23T00:21:06;18.02;;;10.30;;
57832;SDS011;43667;53.036;6.740;2023-01-23T00:23:34;14.23;;;9.70;;
57832;SDS011;43667;53.036;6.740;2023-01-23T00:26:01;17.77;;;9.77;;
57832;SDS011;43667;53.036;6.740;2023-01-23T00:28:27;15.15;;;8.95;;
57832;SDS011;43667;53.036;6.740;2023-01-23T00:30:53;17.40;;;9.65;;
57832;SDS011;43667;53.036;6.740;2023-01-23T00:33:33;17.77;;;9.45;;
57832;SDS011;43667;53.036;6.740;2023-01-23T00:35:59;19.38;;;9.77;;
57832;SDS011;43667;53.036;6.740;2023-01-23T00:38:25;17.35;;;9.77;;
57832;SDS011;43667;53.036;6.740;2023-01-23T00:40:51;15.88;;;9.77;;
57832;SDS011;43667;53.036;6.740;2023-01-23T00:43:18;18.23;;;9.13;;
57832;SDS011;43667;53.036;6.740;2023-01-23T00:45:45;14.77;;;8.95;;
57832;SDS011;43667;53.036;6.740;2023-01-23T00:48:10;16.75;;;9.43;;
57832;SDS011;43667;53.036;6.740;2023-01-23T00:50:36;15.95;;;9.38;;
57832;SDS011;43667;53.036;6.740;2023-01-23T00:53:02;17.65;;;9.48;;
57832;SDS011;43667;53.036;6.740;2023-01-23T00:55:27;16.67;;;8.88;;
57832;SDS011;43667;53.036;6.740;2023-01-23T00:57:53;17.08;;;9.25;;
57832;SDS011;43667;53.036;6.740;2023-01-23T01:00:18;14.45;;;9.43;;
57832;SDS011;43667;53.036;6.740;2023-01-23T01:02:44;19.20;;;9.60;;
57832;SDS011;43667;53.036;6.740;2023-01-23T01:05:09;16.95;;;8.90;;
57832;SDS011;43667;53.036;6.740;2023-01-23T01:07:35;14.60;;;9.05;;
57832;SDS011;43667;53.036;6.740;2023-01-23T01:10:01;16.63;;;9.05;;
57832;SDS011;43667;53.036;6.740;2023-01-23T01:12:26;19.77;;;9.60;;
57832;SDS011;43667;53.036;6.740;2023-01-23T01:14:52;16.30;;;8.80;;
57832;SDS011;43667;53.036;6.740;2023-01-23T01:17:18;14.43;;;8.65;;
57832;SDS011;43667;53.036;6.740;2023-01-23T01:19:43;15.80;;;9.55;;
57832;SDS011;43667;53.036;6.740;2023-01-23T01:22:09;22.08;;;10.10;;
57832;SDS011;43667;53.036;6.740;2023-01-23T01:24:34;16.40;;;9.60;;
57832;SDS011;43667;53.036;6.740;2023-01-23T01:27:00;21.35;;;9.23;;
57832;SDS011;43667;53.036;6.740;2023-01-23T01:29:26;16.75;;;9.63;;
57832;SDS011;43667;53.036;6.740;2023-01-23T01:31:51;13.50;;;9.55;;
57832;SDS011;43667;53.036;6.740;2023-01-23T01:34:17;16.27;;;10.13;;
57832;SDS011;43667;53.036;6.740;2023-01-23T01:36:42;23.15;;;10.88;;
57832;SDS011;43667;53.036;6.740;2023-01-23T01:39:08;19.73;;;10.73;;
57832;SDS011;43667;53.036;6.740;2023-01-23T01:41:33;16.23;;;10.15;;
57832;SDS011;43667;53.036;6.740;2023-01-23T01:44:00;22.42;;;10.80;;
57832;SDS011;43667;53.036;6.740;2023-01-23T01:46:26;18.00;;;10.38;;
57832;SDS011;43667;53.036;6.740;2023-01-23T01:49:09;21.00;;;10.98;;
57832;SDS011;43667;53.036;6.740;2023-01-23T01:51:47;16.55;;;10.30;;
57832;SDS011;43667;53.036;6.740;2023-01-23T01:54:34;15.88;;;10.18;;
57832;SDS011;43667;53.036;6.740;2023-01-23T01:57:12;17.48;;;10.55;;
57832;SDS011;43667;53.036;6.740;2023-01-23T02:02:26;16.92;;;11.00;;
57832;SDS011;43667;53.036;6.740;2023-01-23T02:05:02;16.55;;;10.70;;
57832;SDS011;43667;53.036;6.740;2023-01-23T02:07:36;18.53;;;10.70;;
57832;SDS011;43667;53.036;6.740;2023-01-23T02:10:27;21.08;;;11.68;;
57832;SDS011;43667;53.036;6.740;2023-01-23T02:12:53;15.90;;;11.50;;
57832;SDS011;43667;53.036;6.740;2023-01-23T02:15:19;18.75;;;11.23;;
57832;SDS011;43667;53.036;6.740;2023-01-23T02:17:47;17.75;;;12.00;;
57832;SDS011;43667;53.036;6.740;2023-01-23T02:20:18;20.38;;;12.45;;
57832;SDS011;43667;53.036;6.740;2023-01-23T02:25:23;26.80;;;13.00;;
57832;SDS011;43667;53.036;6.740;2023-01-23T02:28:15;20.15;;;12.32;;
57832;SDS011;43667;53.036;6.740;2023-01-23T02:30:41;19.25;;;13.00;;
57832;SDS011;43667;53.036;6.740;2023-01-23T02:33:41;20.08;;;11.57;;
57832;SDS011;43667;53.036;6.740;2023-01-23T02:35:59;15.75;;;11.38;;
57832;SDS011;43667;53.036;6.740;2023-01-23T02:38:29;16.15;;;12.30;;
57832;SDS011;43667;53.036;6.740;2023-01-23T02:40:59;16.42;;;11.35;;
57832;SDS011;43667;53.036;6.740;2023-01-23T02:43:28;20.77;;;11.45;;
57832;SDS011;43667;53.036;6.740;2023-01-23T02:46:17;19.13;;;11.52;;
57832;SDS011;43667;53.036;6.740;2023-01-23T02:48:44;22.08;;;11.65;;
57832;SDS011;43667;53.036;6.740;2023-01-23T02:51:11;16.67;;;11.63;;
57832;SDS011;43667;53.036;6.740;2023-01-23T02:53:37;19.23;;;11.88;;
57832;SDS011;43667;53.036;6.740;2023-01-23T02:56:03;17.02;;;12.13;;
57832;SDS011;43667;53.036;6.740;2023-01-23T02:58:29;22.23;;;11.52;;
57832;SDS011;43667;53.036;6.740;2023-01-23T03:01:13;16.40;;;11.50;;
57832;SDS011;43667;53.036;6.740;2023-01-23T03:03:39;17.70;;;11.48;;
57832;SDS011;43667;53.036;6.740;2023-01-23T03:06:08;18.95;;;11.25;;
57832;SDS011;43667;53.036;6.740;2023-01-23T03:08:34;15.05;;;11.20;;
57832;SDS011;43667;53.036;6.740;2023-01-23T03:11:11;19.30;;;11.70;;
57832;SDS011;43667;53.036;6.740;2023-01-23T03:13:38;18.40;;;11.57;;
57832;SDS011;43667;53.036;6.740;2023-01-23T03:16:04;15.82;;;11.32;;
57832;SDS011;43667;53.036;6.740;2023-01-23T03:18:30;19.95;;;11.73;;
57832;SDS011;43667;53.036;6.740;2023-01-23T03:21:06;16.50;;;10.77;;
57832;SDS011;43667;53.036;6.740;2023-01-23T03:23:32;20.35;;;12.15;;
57832;SDS011;43667;53.036;6.740;2023-01-23T03:25:58;21.10;;;11.85;;
57832;SDS011;43667;53.036;6.740;2023-01-23T03:28:24;20.83;;;12.57;;
57832;SDS011;43667;53.036;6.740;2023-01-23T03:31:09;21.48;;;11.80;;
57832;SDS011;43667;53.036;6.740;2023-01-23T03:33:36;23.85;;;13.00;;
57832;SDS011;43667;53.036;6.740;2023-01-23T03:36:04;19.00;;;12.40;;
57832;SDS011;43667;53.036;6.740;2023-01-23T03:38:30;17.92;;;12.90;;
57832;SDS011;43667;53.036;6.740;2023-01-23T03:40:56;19.20;;;12.30;;
57832;SDS011;43667;53.036;6.740;2023-01-23T03:43:40;19.10;;;12.20;;
57832;SDS011;43667;53.036;6.740;2023-01-23T03:46:05;17.70;;;11.63;;
57832;SDS011;43667;53.036;6.740;2023-01-23T03:48:31;22.00;;;13.15;;
57832;SDS011;43667;53.036;6.740;2023-01-23T03:50:56;22.67;;;12.13;;
57832;SDS011;43667;53.036;6.740;2023-01-23T03:53:22;22.80;;;12.90;;
57832;SDS011;43667;53.036;6.740;2023-01-23T03:55:49;18.73;;;12.43;;
57832;SDS011;43667;53.036;6.740;2023-01-23T03:58:14;26.52;;;13.02;;
57832;SDS011;43667;53.036;6.740;2023-01-23T04:00:40;23.02;;;12.85;;
57832;SDS011;43667;53.036;6.740;2023-01-23T04:03:06;17.40;;;13.00;;
57832;SDS011;43667;53.036;6.740;2023-01-23T04:05:32;20.85;;;12.88;;
57832;SDS011;43667;53.036;6.740;2023-01-23T04:07:58;19.98;;;13.90;;
57832;SDS011;43667;53.036;6.740;2023-01-23T04:10:23;21.42;;;12.93;;
57832;SDS011;43667;53.036;6.740;2023-01-23T04:12:49;19.42;;;12.85;;
57832;SDS011;43667;53.036;6.740;2023-01-23T04:15:15;21.48;;;13.82;;
57832;SDS011;43667;53.036;6.740;2023-01-23T04:17:40;19.95;;;12.90;;
57832;SDS011;43667;53.036;6.740;2023-01-23T04:20:06;19.02;;;13.52;;
57832;SDS011;43667;53.036;6.740;2023-01-23T04:22:32;19.60;;;12.57;;
57832;SDS011;43667;53.036;6.740;2023-01-23T04:24:58;18.60;;;13.20;;
57832;SDS011;43667;53.036;6.740;2023-01-23T04:27:23;22.83;;;13.75;;
57832;SDS011;43667;53.036;6.740;2023-01-23T04:29:49;19.30;;;13.38;;
57832;SDS011;43667;53.036;6.740;2023-01-23T04:32:15;21.70;;;12.82;;
57832;SDS011;43667;53.036;6.740;2023-01-23T04:34:40;21.63;;;13.40;;
57832;SDS011;43667;53.036;6.740;2023-01-23T04:37:06;24.00;;;14.15;;
57832;SDS011;43667;53.036;6.740;2023-01-23T04:39:31;19.50;;;14.05;;
57832;SDS011;43667;53.036;6.740;2023-01-23T04:41:57;22.65;;;14.52;;
57832;SDS011;43667;53.036;6.740;2023-01-23T04:44:23;23.25;;;13.48;;
57832;SDS011;43667;53.036;6.740;2023-01-23T04:46:50;22.20;;;13.45;;
57832;SDS011;43667;53.036;6.740;2023-01-23T04:49:18;21.50;;;13.77;;
57832;SDS011;43667;53.036;6.740;2023-01-23T04:51:45;19.00;;;14.10;;
57832;SDS011;43667;53.036;6.740;2023-01-23T04:54:12;18.83;;;12.55;;
57832;SDS011;43667;53.036;6.740;2023-01-23T04:56:38;18.40;;;13.32;;
57832;SDS011;43667;53.036;6.740;2023-01-23T04:59:03;21.10;;;13.82;;
57832;SDS011;43667;53.036;6.740;2023-01-23T05:01:29;19.65;;;13.57;;
57832;SDS011;43667;53.036;6.740;2023-01-23T05:03:55;18.92;;;12.55;;
57832;SDS011;43667;53.036;6.740;2023-01-23T05:06:20;24.42;;;13.68;;
57832;SDS011;43667;53.036;6.740;2023-01-23T05:08:46;20.67;;;13.50;;
57832;SDS011;43667;53.036;6.740;2023-01-23T05:11:12;23.40;;;13.65;;
57832;SDS011;43667;53.036;6.740;2023-01-23T05:13:37;17.00;;;12.10;;
57832;SDS011;43667;53.036;6.740;2023-01-23T05:16:03;18.48;;;13.20;;
57832;SDS011;43667;53.036;6.740;2023-01-23T05:18:29;21.70;;;13.63;;
57832;SDS011;43667;53.036;6.740;2023-01-23T05:20:55;20.10;;;13.77;;
57832;SDS011;43667;53.036;6.740;2023-01-23T05:23:20;20.88;;;13.18;;
57832;SDS011;43667;53.036;6.740;2023-01-23T05:25:46;18.67;;;12.80;;
57832;SDS011;43667;53.036;6.740;2023-01-23T05:28:12;17.08;;;13.40;;
57832;SDS011;43667;53.036;6.740;2023-01-23T05:30:37;17.50;;;12.90;;
57832;SDS011;43667;53.036;6.740;2023-01-23T05:33:03;19.50;;;12.82;;
57832;SDS011;43667;53.036;6.740;2023-01-23T05:35:29;16.17;;;12.65;;
57832;SDS011;43667;53.036;6.740;2023-01-23T05:37:55;19.90;;;12.32;;
57832;SDS011;43667;53.036;6.740;2023-01-23T05:40:20;20.25;;;12.88;;
57832;SDS011;43667;53.036;6.740;2023-01-23T05:42:47;19.52;;;13.15;;
57832;SDS011;43667;53.036;6.740;2023-01-23T05:45:13;21.00;;;13.65;;
57832;SDS011;43667;53.036;6.740;2023-01-23T05:47:39;18.88;;;12.80;;
57832;SDS011;43667;53.036;6.740;2023-01-23T05:50:05;20.92;;;12.90;;
57832;SDS011;43667;53.036;6.740;2023-01-23T05:52:32;18.88;;;12.60;;
57832;SDS011;43667;53.036;6.740;2023-01-23T05:54:58;24.48;;;12.57;;
57832;SDS011;43667;53.036;6.740;2023-01-23T05:57:24;15.68;;;11.90;;
57832;SDS011;43667;53.036;6.740;2023-01-23T05:59:50;22.45;;;13.20;;
57832;SDS011;43667;53.036;6.740;2023-01-23T06:02:15;19.23;;;12.50;;
57832;SDS011;43667;53.036;6.740;2023-01-23T06:04:41;17.50;;;13.13;;
57832;SDS011;43667;53.036;6.740;2023-01-23T06:07:11;22.25;;;13.15;;
57832;SDS011;43667;53.036;6.740;2023-01-23T06:09:38;19.45;;;13.57;;
57832;SDS011;43667;53.036;6.740;2023-01-23T06:12:04;18.65;;;12.57;;
57832;SDS011;43667;53.036;6.740;2023-01-23T06:14:29;22.00;;;14.13;;
57832;SDS011;43667;53.036;6.740;2023-01-23T06:16:55;21.27;;;12.90;;
57832;SDS011;43667;53.036;6.740;2023-01-23T06:19:21;21.40;;;13.23;;
57832;SDS011;43667;53.036;6.740;2023-01-23T06:21:46;16.80;;;13.00;;
57832;SDS011;43667;53.036;6.740;2023-01-23T06:24:12;19.17;;;13.43;;
57832;SDS011;43667;53.036;6.740;2023-01-23T06:26:37;23.27;;;13.35;;
57832;SDS011;43667;53.036;6.740;2023-01-23T06:29:03;18.60;;;14.05;;
57832;SDS011;43667;53.036;6.740;2023-01-23T06:31:29;20.75;;;14.38;;
57832;SDS011;43667;53.036;6.740;2023-01-23T06:33:56;20.80;;;13.35;;
57832;SDS011;43667;53.036;6.740;2023-01-23T06:36:22;21.70;;;14.40;;
57832;SDS011;43667;53.036;6.740;2023-01-23T06:38:48;18.67;;;13.13;;
57832;SDS011;43667;53.036;6.740;2023-01-23T06:41:14;22.23;;;14.00;;
57832;SDS011;43667;53.036;6.740;2023-01-23T06:43:40;20.85;;;13.82;;
57832;SDS011;43667;53.036;6.740;2023-01-23T06:46:07;18.73;;;13.15;;
57832;SDS011;43667;53.036;6.740;2023-01-23T06:48:34;19.92;;;13.85;;
57832;SDS011;43667;53.036;6.740;2023-01-23T06:51:00;18.70;;;13.88;;
57832;SDS011;43667;53.036;6.740;2023-01-23T06:53:25;16.13;;;13.00;;
57832;SDS011;43667;53.036;6.740;2023-01-23T06:55:51;21.77;;;13.43;;
57832;SDS011;43667;53.036;6.740;2023-01-23T06:58:17;18.80;;;13.00;;
57832;SDS011;43667;53.036;6.740;2023-01-23T07:00:43;17.83;;;12.95;;
57832;SDS011;43667;53.036;6.740;2023-01-23T07:03:10;18.42;;;13.02;;
57832;SDS011;43667;53.036;6.740;2023-01-23T07:05:41;24.65;;;13.68;;
57832;SDS011;43667;53.036;6.740;2023-01-23T07:08:07;21.65;;;13.88;;
57832;SDS011;43667;53.036;6.740;2023-01-23T07:10:36;21.75;;;14.02;;
57832;SDS011;43667;53.036;6.740;2023-01-23T07:13:03;21.23;;;13.55;;
57832;SDS011;43667;53.036;6.740;2023-01-23T07:15:29;23.92;;;14.85;;
57832;SDS011;43667;53.036;6.740;2023-01-23T07:17:55;20.73;;;14.70;;
57832;SDS011;43667;53.036;6.740;2023-01-23T07:20:20;27.05;;;15.60;;
57832;SDS011;43667;53.036;6.740;2023-01-23T07:22:46;28.30;;;15.93;;
57832;SDS011;43667;53.036;6.740;2023-01-23T07:25:13;22.77;;;15.45;;
57832;SDS011;43667;53.036;6.740;2023-01-23T07:27:39;19.20;;;14.70;;
57832;SDS011;43667;53.036;6.740;2023-01-23T07:30:05;24.38;;;14.43;;
57832;SDS011;43667;53.036;6.740;2023-01-23T07:32:31;24.10;;;14.05;;
57832;SDS011;43667;53.036;6.740;2023-01-23T07:34:56;20.67;;;13.25;;
57832;SDS011;43667;53.036;6.740;2023-01-23T07:37:22;21.25;;;13.82;;
57832;SDS011;43667;53.036;6.740;2023-01-23T07:39:49;18.73;;;12.10;;
57832;SDS011;43667;53.036;6.740;2023-01-23T07:42:14;18.70;;;11.77;;
57832;SDS011;43667;53.036;6.740;2023-01-23T07:44:40;16.98;;;12.70;;
57832;SDS011;43667;53.036;6.740;2023-01-23T07:47:05;19.25;;;12.23;;
57832;SDS011;43667;53.036;6.740;2023-01-23T07:49:31;14.27;;;11.52;;
57832;SDS011;43667;53.036;6.740;2023-01-23T07:51:56;18.50;;;12.10;;
57832;SDS011;43667;53.036;6.740;2023-01-23T07:54:22;16.27;;;12.07;;
57832;SDS011;43667;53.036;6.740;2023-01-23T07:56:48;17.42;;;11.70;;
57832;SDS011;43667;53.036;6.740;2023-01-23T07:59:15;14.18;;;12.00;;
57832;SDS011;43667;53.036;6.740;2023-01-23T08:01:41;16.20;;;11.38;;
57832;SDS011;43667;53.036;6.740;2023-01-23T08:04:07;23.17;;;11.90;;
57832;SDS011;43667;53.036;6.740;2023-01-23T08:06:32;16.40;;;12.32;;
57832;SDS011;43667;53.036;6.740;2023-01-23T08:08:58;16.35;;;11.95;;
57832;SDS011;43667;53.036;6.740;2023-01-23T08:11:24;16.42;;;11.50;;
57832;SDS011;43667;53.036;6.740;2023-01-23T08:13:50;15.40;;;11.85;;
57832;SDS011;43667;53.036;6.740;2023-01-23T08:16:16;15.00;;;11.75;;
57832;SDS011;43667;53.036;6.740;2023-01-23T08:18:42;15.63;;;11.00;;
57832;SDS011;43667;53.036;6.740;2023-01-23T08:21:08;17.95;;;11.52;;
57832;SDS011;43667;53.036;6.740;2023-01-23T08:23:34;16.20;;;10.82;;
57832;SDS011;43667;53.036;6.740;2023-01-23T08:26:02;16.85;;;11.18;;
57832;SDS011;43667;53.036;6.740;2023-01-23T08:28:29;20.02;;;10.95;;
57832;SDS011;43667;53.036;6.740;2023-01-23T08:30:59;15.50;;;12.10;;
57832;SDS011;43667;53.036;6.740;2023-01-23T08:33:25;12.35;;;10.35;;
57832;SDS011;43667;53.036;6.740;2023-01-23T08:35:52;14.07;;;10.50;;
57832;SDS011;43667;53.036;6.740;2023-01-23T08:38:19;12.80;;;10.38;;
57832;SDS011;43667;53.036;6.740;2023-01-23T08:40:46;15.13;;;11.02;;
57832;SDS011;43667;53.036;6.740;2023-01-23T08:43:13;16.38;;;11.57;;
57832;SDS011;43667;53.036;6.740;2023-01-23T08:45:39;15.43;;;10.10;;
57832;SDS011;43667;53.036;6.740;2023-01-23T08:48:05;14.95;;;10.60;;
57832;SDS011;43667;53.036;6.740;2023-01-23T08:50:31;13.45;;;11.10;;
57832;SDS011;43667;53.036;6.740;2023-01-23T08:52:57;13.43;;;10.65;;
57832;SDS011;43667;53.036;6.740;2023-01-23T08:55:23;15.88;;;10.80;;
57832;SDS011;43667;53.036;6.740;2023-01-23T08:57:48;14.13;;;10.65;;
57832;SDS011;43667;53.036;6.740;2023-01-23T09:00:14;15.10;;;10.82;;
57832;SDS011;43667;53.036;6.740;2023-01-23T09:02:40;14.32;;;10.48;;
57832;SDS011;43667;53.036;6.740;2023-01-23T09:05:06;14.05;;;9.75;;
57832;SDS011;43667;53.036;6.740;2023-01-23T09:07:32;12.65;;;10.00;;
57832;SDS011;43667;53.036;6.740;2023-01-23T09:10:00;14.77;;;9.73;;
57832;SDS011;43667;53.036;6.740;2023-01-23T09:12:26;13.88;;;9.55;;
57832;SDS011;43667;53.036;6.740;2023-01-23T09:14:52;11.90;;;9.63;;
57832;SDS011;43667;53.036;6.740;2023-01-23T09:17:18;12.98;;;9.88;;
57832;SDS011;43667;53.036;6.740;2023-01-23T09:19:44;10.77;;;8.98;;
57832;SDS011;43667;53.036;6.740;2023-01-23T09:22:09;12.93;;;9.40;;
57832;SDS011;43667;53.036;6.740;2023-01-23T09:24:35;11.30;;;9.88;;
57832;SDS011;43667;53.036;6.740;2023-01-23T09:27:01;12.27;;;9.13;;
57832;SDS011;43667;53.036;6.740;2023-01-23T09:29:27;13.15;;;9.50;;
57832;SDS011;43667;53.036;6.740;2023-01-23T09:31:52;14.43;;;9.20;;
57832;SDS011;43667;53.036;6.740;2023-01-23T09:34:18;10.65;;;8.30;;
57832;SDS011;43667;53.036;6.740;2023-01-23T09:36:44;14.75;;;9.80;;
57832;SDS011;43667;53.036;6.740;2023-01-23T09:39:09;13.82;;;9.02;;
57832;SDS011;43667;53.036;6.740;2023-01-23T09:41:36;12.32;;;9.15;;
57832;SDS011;43667;53.036;6.740;2023-01-23T09:49:21;12.75;;;8.73;;
57832;SDS011;43667;53.036;6.740;2023-01-23T09:51:58;13.95;;;9.38;;
57832;SDS011;43667;53.036;6.740;2023-01-23T09:54:40;13.20;;;8.32;;
57832;SDS011;43667;53.036;6.740;2023-01-23T09:57:12;14.48;;;8.23;;
57832;SDS011;43667;53.036;6.740;2023-01-23T09:59:39;11.88;;;8.70;;
57832;SDS011;43667;53.036;6.740;2023-01-23T10:02:13;11.02;;;8.57;;
57832;SDS011;43667;53.036;6.740;2023-01-23T10:04:43;10.05;;;9.00;;
57832;SDS011;43667;53.036;6.740;2023-01-23T10:09:58;9.20;;;8.07;;
57832;SDS011;43667;53.036;6.740;2023-01-23T10:15:14;10.13;;;8.30;;
57832;SDS011;43667;53.036;6.740;2023-01-23T10:17:52;10.40;;;8.55;;
57832;SDS011;43667;53.036;6.740;2023-01-23T10:25:49;11.82;;;8.68;;
57832;SDS011;43667;53.036;6.740;2023-01-23T10:28:24;11.25;;;9.20;;
57832;SDS011;43667;53.036;6.740;2023-01-23T10:36:29;13.82;;;9.90;;
57832;SDS011;43667;53.036;6.740;2023-01-23T10:39:05;12.23;;;9.98;;
57832;SDS011;43667;53.036;6.740;2023-01-23T10:41:37;11.30;;;9.43;;
57832;SDS011;43667;53.036;6.740;2023-01-23T10:44:04;14.52;;;9.65;;
57832;SDS011;43667;53.036;6.740;2023-01-23T10:46:44;12.63;;;10.63;;
57832;SDS011;43667;53.036;6.740;2023-01-23T10:49:25;14.07;;;9.88;;
57832;SDS011;43667;53.036;6.740;2023-01-23T10:52:23;16.30;;;10.30;;
57832;SDS011;43667;53.036;6.740;2023-01-23T10:54:54;12.13;;;10.93;;
57832;SDS011;43667;53.036;6.740;2023-01-23T11:02:34;13.10;;;10.98;;
57832;SDS011;43667;53.036;6.740;2023-01-23T11:05:01;13.90;;;11.57;;
57832;SDS011;43667;53.036;6.740;2023-01-23T11:07:52;19.45;;;12.98;;
57832;SDS011;43667;53.036;6.740;2023-01-23T11:10:20;15.80;;;13.15;;
57832;SDS011;43667;53.036;6.740;2023-01-23T11:12:47;17.08;;;12.95;;
57832;SDS011;43667;53.036;6.740;2023-01-23T11:15:24;14.82;;;12.82;;
57832;SDS011;43667;53.036;6.740;2023-01-23T11:18:02;17.25;;;13.25;;
57832;SDS011;43667;53.036;6.740;2023-01-23T11:20:58;17.33;;;14.65;;
57832;SDS011;43667;53.036;6.740;2023-01-23T11:23:24;16.00;;;12.65;;
57832;SDS011;43667;53.036;6.740;2023-01-23T11:25:51;15.23;;;12.73;;
57832;SDS011;43667;53.036;6.740;2023-01-23T11:31:11;16.52;;;12.80;;
57832;SDS011;43667;53.036;6.740;2023-01-23T11:36:50;15.10;;;11.93;;
57832;SDS011;43667;53.036;6.740;2023-01-23T11:42:07;16.13;;;12.93;;
57832;SDS011;43667;53.036;6.740;2023-01-23T11:44:36;15.38;;;12.30;;
57832;SDS011;43667;53.036;6.740;2023-01-23T11:49:46;16.80;;;13.55;;
57832;SDS011;43667;53.036;6.740;2023-01-23T12:03:16;17.80;;;14.18;;
57832;SDS011;43667;53.036;6.740;2023-01-23T12:05:50;17.23;;;14.35;;
57832;SDS011;43667;53.036;6.740;2023-01-23T12:08:35;19.23;;;13.90;;
57832;SDS011;43667;53.036;6.740;2023-01-23T12:11:18;19.13;;;14.60;;
57832;SDS011;43667;53.036;6.740;2023-01-23T12:13:55;16.63;;;13.20;;
57832;SDS011;43667;53.036;6.740;2023-01-23T12:24:47;17.65;;;14.35;;
57832;SDS011;43667;53.036;6.740;2023-01-23T12:27:31;19.77;;;14.70;;
57832;SDS011;43667;53.036;6.740;2023-01-23T12:32:44;19.95;;;15.55;;
57832;SDS011;43667;53.036;6.740;2023-01-23T12:38:08;16.42;;;14.52;;
57832;SDS011;43667;53.036;6.740;2023-01-23T12:40:42;17.05;;;14.43;;
57832;SDS011;43667;53.036;6.740;2023-01-23T12:43:17;16.42;;;13.82;;
57832;SDS011;43667;53.036;6.740;2023-01-23T12:45:55;17.85;;;14.25;;
57832;SDS011;43667;53.036;6.740;2023-01-23T12:48:35;17.40;;;14.95;;
57832;SDS011;43667;53.036;6.740;2023-01-23T12:51:11;16.00;;;13.35;;
57832;SDS011;43667;53.036;6.740;2023-01-23T12:53:43;17.73;;;15.30;;
57832;SDS011;43667;53.036;6.740;2023-01-23T12:56:13;20.52;;;15.35;;
57832;SDS011;43667;53.036;6.740;2023-01-23T12:58:54;17.15;;;14.50;;
57832;SDS011;43667;53.036;6.740;2023-01-23T13:01:49;17.75;;;13.15;;
57832;SDS011;43667;53.036;6.740;2023-01-23T13:07:08;19.70;;;13.45;;
57832;SDS011;43667;53.036;6.740;2023-01-23T13:10:38;20.88;;;13.85;;
57832;SDS011;43667;53.036;6.740;2023-01-23T13:12:47;16.88;;;13.65;;
57832;SDS011;43667;53.036;6.740;2023-01-23T13:17:49;15.80;;;13.23;;
57832;SDS011;43667;53.036;6.740;2023-01-23T13:23:37;15.45;;;12.55;;
57832;SDS011;43667;53.036;6.740;2023-01-23T13:28:41;20.17;;;13.40;;
57832;SDS011;43667;53.036;6.740;2023-01-23T13:36:39;16.25;;;11.73;;
57832;SDS011;43667;53.036;6.740;2023-01-23T13:39:19;16.92;;;11.88;;
57832;SDS011;43667;53.036;6.740;2023-01-23T13:41:51;15.93;;;12.85;;
57832;SDS011;43667;53.036;6.740;2023-01-23T13:47:48;13.35;;;11.38;;
57832;SDS011;43667;53.036;6.740;2023-01-23T13:50:55;12.88;;;10.13;;
57832;SDS011;43667;53.036;6.740;2023-01-23T13:53:29;11.38;;;10.13;;
57832;SDS011;43667;53.036;6.740;2023-01-23T13:56:15;12.07;;;9.52;;
57832;SDS011;43667;53.036;6.740;2023-01-23T13:59:02;11.15;;;9.90;;
57832;SDS011;43667;53.036;6.740;2023-01-23T14:01:32;12.05;;;9.63;;
57832;SDS011;43667;53.036;6.740;2023-01-23T14:04:43;11.40;;;10.20;;
57832;SDS011;43667;53.036;6.740;2023-01-23T14:07:39;11.68;;;9.38;;
57832;SDS011;43667;53.036;6.740;2023-01-23T14:12:42;12.20;;;9.25;;
57832;SDS011;43667;53.036;6.740;2023-01-23T14:15:25;11.20;;;9.60;;
57832;SDS011;43667;53.036;6.740;2023-01-23T14:18:17;11.45;;;9.02;;
57832;SDS011;43667;53.036;6.740;2023-01-23T14:21:20;11.70;;;9.07;;
57832;SDS011;43667;53.036;6.740;2023-01-23T14:23:49;11.57;;;9.85;;
57832;SDS011;43667;53.036;6.740;2023-01-23T14:26:23;17.07;;;10.00;;
57832;SDS011;43667;53.036;6.740;2023-01-23T14:31:31;13.77;;;10.68;;
57832;SDS011;43667;53.036;6.740;2023-01-23T14:34:05;14.27;;;9.85;;
57832;SDS011;43667;53.036;6.740;2023-01-23T14:36:40;15.27;;;11.55;;
57832;SDS011;43667;53.036;6.740;2023-01-23T14:39:15;12.73;;;10.55;;
57832;SDS011;43667;53.036;6.740;2023-01-23T14:41:44;12.43;;;10.68;;
57832;SDS011;43667;53.036;6.740;2023-01-23T14:44:22;15.70;;;10.98;;
57832;SDS011;43667;53.036;6.740;2023-01-23T14:46:52;13.85;;;11.52;;
57832;SDS011;43667;53.036;6.740;2023-01-23T14:49:26;14.38;;;11.18;;
57832;SDS011;43667;53.036;6.740;2023-01-23T14:51:59;12.93;;;11.05;;
57832;SDS011;43667;53.036;6.740;2023-01-23T14:54:30;12.10;;;10.77;;
57832;SDS011;43667;53.036;6.740;2023-01-23T14:56:56;13.23;;;11.02;;
57832;SDS011;43667;53.036;6.740;2023-01-23T14:59:33;13.13;;;11.73;;
57832;SDS011;43667;53.036;6.740;2023-01-23T15:02:02;14.00;;;12.25;;
57832;SDS011;43667;53.036;6.740;2023-01-23T15:07:34;14.02;;;11.75;;
57832;SDS011;43667;53.036;6.740;2023-01-23T15:10:11;16.83;;;12.18;;
57832;SDS011;43667;53.036;6.740;2023-01-23T15:12:49;15.00;;;12.90;;
57832;SDS011;43667;53.036;6.740;2023-01-23T15:15:18;16.48;;;13.27;;
57832;SDS011;43667;53.036;6.740;2023-01-23T15:17:48;15.98;;;13.48;;
57832;SDS011;43667;53.036;6.740;2023-01-23T15:20:28;16.38;;;13.00;;
57832;SDS011;43667;53.036;6.740;2023-01-23T15:25:42;17.10;;;11.90;;
57832;SDS011;43667;53.036;6.740;2023-01-23T15:30:54;14.32;;;11.50;;
57832;SDS011;43667;53.036;6.740;2023-01-23T15:33:26;14.52;;;11.23;;
57832;SDS011;43667;53.036;6.740;2023-01-23T15:36:07;14.25;;;11.57;;
57832;SDS011;43667;53.036;6.740;2023-01-23T15:38:46;13.30;;;11.43;;
57832;SDS011;43667;53.036;6.740;2023-01-23T15:41:12;14.55;;;12.05;;
57832;SDS011;43667;53.036;6.740;2023-01-23T15:43:38;16.77;;;11.68;;
57832;SDS011;43667;53.036;6.740;2023-01-23T15:46:03;15.23;;;12.93;;
57832;SDS011;43667;53.036;6.740;2023-01-23T15:48:29;12.80;;;11.50;;
57832;SDS011;43667;53.036;6.740;2023-01-23T15:50:54;13.23;;;11.82;;
57832;SDS011;43667;53.036;6.740;2023-01-23T15:53:20;15.10;;;12.07;;
57832;SDS011;43667;53.036;6.740;2023-01-23T15:55:45;13.63;;;12.07;;
57832;SDS011;43667;53.036;6.740;2023-01-23T15:58:12;18.33;;;13.30;;
57832;SDS011;43667;53.036;6.740;2023-01-23T16:00:41;14.40;;;11.68;;
57832;SDS011;43667;53.036;6.740;2023-01-23T16:03:06;13.68;;;12.15;;
57832;SDS011;43667;53.036;6.740;2023-01-23T16:05:33;15.45;;;11.95;;
57832;SDS011;43667;53.036;6.740;2023-01-23T16:08:00;13.13;;;11.52;;
57832;SDS011;43667;53.036;6.740;2023-01-23T16:10:28;19.10;;;11.88;;
57832;SDS011;43667;53.036;6.740;2023-01-23T16:12:57;16.92;;;12.57;;
57832;SDS011;43667;53.036;6.740;2023-01-23T16:15:27;14.52;;;11.85;;
57832;SDS011;43667;53.036;6.740;2023-01-23T16:17:54;18.85;;;14.02;;
57832;SDS011;43667;53.036;6.740;2023-01-23T16:20:26;15.68;;;11.90;;